sensor_id;sensor_type;location;lat;lon;timestamp;P1;durP1;ratioP1;P2;durP2;ratioP2
2720;SDS011;1368;49.484;11.112;2022-07-23T00:00:55;20.90;;;18.83;;
2720;SDS011;1368;49.484;11.112;2022-07-23T00:03:20;24.40;;;20.53;;
2720;SDS011;1368;49.484;11.112;2022-07-23T00:05:46;26.47;;;19.97;;
2720;SDS011;1368;49.484;11.112;2022-07-23T00:08:12;27.73;;;20.50;;
2720;SDS011;1368;49.484;11.112;2022-07-23T00:10:37;23.60;;;20.90;;
2720;SDS011;1368;49.484;11.112;2022-07-23T00:13:03;21.97;;;19.77;;
2720;SDS011;1368;49.484;11.112;2022-07-23T00:15:29;22.63;;;18.83;;
2720;SDS011;1368;49.484;11.112;2022-07-23T00:17:54;21.30;;;18.77;;
2720;SDS011;1368;49.484;11.112;2022-07-23T00:20:20;23.57;;;20.60;;
2720;SDS011;1368;49.484;11.112;2022-07-23T00:22:46;23.27;;;19.00;;
2720;SDS011;1368;49.484;11.112;2022-07-23T00:25:13;23.20;;;20.00;;
2720;SDS011;1368;49.484;11.112;2022-07-23T00:27:39;23.43;;;19.83;;
2720;SDS011;1368;49.484;11.112;2022-07-23T00:30:05;26.63;;;21.10;;
2720;SDS011;1368;49.484;11.112;2022-07-23T00:32:31;23.40;;;20.20;;
2720;SDS011;1368;49.484;11.112;2022-07-23T00:34:56;29.40;;;20.40;;
2720;SDS011;1368;49.484;11.112;2022-07-23T00:37:22;23.30;;;20.80;;
2720;SDS011;1368;49.484;11.112;2022-07-23T00:39:48;23.37;;;20.87;;
2720;SDS011;1368;49.484;11.112;2022-07-23T00:42:13;29.60;;;20.30;;
2720;SDS011;1368;49.484;11.112;2022-07-23T00:44:39;20.70;;;18.70;;
2720;SDS011;1368;49.484;11.112;2022-07-23T00:47:04;24.60;;;21.87;;
2720;SDS011;1368;49.484;11.112;2022-07-23T00:49:30;23.23;;;20.30;;
2720;SDS011;1368;49.484;11.112;2022-07-23T00:51:57;23.03;;;20.73;;
2720;SDS011;1368;49.484;11.112;2022-07-23T00:54:26;24.80;;;20.20;;
2720;SDS011;1368;49.484;11.112;2022-07-23T00:56:52;22.10;;;19.77;;
2720;SDS011;1368;49.484;11.112;2022-07-23T00:59:18;22.70;;;19.77;;
2720;SDS011;1368;49.484;11.112;2022-07-23T01:01:44;23.23;;;20.13;;
2720;SDS011;1368;49.484;11.112;2022-07-23T01:04:11;26.10;;;20.60;;
2720;SDS011;1368;49.484;11.112;2022-07-23T01:06:37;22.33;;;19.80;;
2720;SDS011;1368;49.484;11.112;2022-07-23T01:09:04;25.43;;;21.50;;
2720;SDS011;1368;49.484;11.112;2022-07-23T01:11:34;19.77;;;17.67;;
2720;SDS011;1368;49.484;11.112;2022-07-23T01:14:08;21.03;;;19.00;;
2720;SDS011;1368;49.484;11.112;2022-07-23T01:16:37;22.10;;;19.67;;
2720;SDS011;1368;49.484;11.112;2022-07-23T01:19:03;20.53;;;18.53;;
2720;SDS011;1368;49.484;11.112;2022-07-23T01:21:31;22.30;;;20.00;;
2720;SDS011;1368;49.484;11.112;2022-07-23T01:24:08;23.17;;;20.33;;
2720;SDS011;1368;49.484;11.112;2022-07-23T01:26:34;21.63;;;19.47;;
2720;SDS011;1368;49.484;11.112;2022-07-23T01:29:01;23.00;;;20.60;;
2720;SDS011;1368;49.484;11.112;2022-07-23T01:31:26;22.30;;;20.00;;
2720;SDS011;1368;49.484;11.112;2022-07-23T01:33:52;22.53;;;20.33;;
2720;SDS011;1368;49.484;11.112;2022-07-23T01:36:18;21.27;;;19.07;;
2720;SDS011;1368;49.484;11.112;2022-07-23T01:38:44;25.20;;;20.47;;
2720;SDS011;1368;49.484;11.112;2022-07-23T01:41:09;27.30;;;22.43;;
2720;SDS011;1368;49.484;11.112;2022-07-23T01:43:35;25.87;;;21.73;;
2720;SDS011;1368;49.484;11.112;2022-07-23T01:46:01;23.20;;;20.83;;
2720;SDS011;1368;49.484;11.112;2022-07-23T01:48:26;23.93;;;21.20;;
2720;SDS011;1368;49.484;11.112;2022-07-23T01:50:52;25.20;;;21.73;;
2720;SDS011;1368;49.484;11.112;2022-07-23T01:53:17;28.53;;;22.97;;
2720;SDS011;1368;49.484;11.112;2022-07-23T01:55:43;30.77;;;23.00;;
2720;SDS011;1368;49.484;11.112;2022-07-23T01:58:09;26.90;;;22.53;;
2720;SDS011;1368;49.484;11.112;2022-07-23T02:00:34;23.93;;;20.60;;
2720;SDS011;1368;49.484;11.112;2022-07-23T02:03:00;24.80;;;22.20;;
2720;SDS011;1368;49.484;11.112;2022-07-23T02:05:26;24.63;;;21.93;;
2720;SDS011;1368;49.484;11.112;2022-07-23T02:07:56;25.13;;;22.40;;
2720;SDS011;1368;49.484;11.112;2022-07-23T02:10:23;27.33;;;22.47;;
2720;SDS011;1368;49.484;11.112;2022-07-23T02:12:49;26.17;;;20.70;;
2720;SDS011;1368;49.484;11.112;2022-07-23T02:15:14;25.53;;;22.93;;
2720;SDS011;1368;49.484;11.112;2022-07-23T02:17:40;25.30;;;22.67;;
2720;SDS011;1368;49.484;11.112;2022-07-23T02:20:06;26.27;;;22.40;;
2720;SDS011;1368;49.484;11.112;2022-07-23T02:22:33;25.20;;;22.33;;
2720;SDS011;1368;49.484;11.112;2022-07-23T02:24:59;25.53;;;21.27;;
2720;SDS011;1368;49.484;11.112;2022-07-23T02:27:24;27.67;;;22.13;;
2720;SDS011;1368;49.484;11.112;2022-07-23T02:29:50;28.33;;;22.23;;
2720;SDS011;1368;49.484;11.112;2022-07-23T02:32:15;28.30;;;22.00;;
2720;SDS011;1368;49.484;11.112;2022-07-23T02:34:41;25.50;;;22.33;;
2720;SDS011;1368;49.484;11.112;2022-07-23T02:37:07;28.33;;;23.00;;
2720;SDS011;1368;49.484;11.112;2022-07-23T02:39:33;27.07;;;22.97;;
2720;SDS011;1368;49.484;11.112;2022-07-23T02:41:59;24.03;;;20.67;;
2720;SDS011;1368;49.484;11.112;2022-07-23T02:44:25;28.30;;;23.10;;
2720;SDS011;1368;49.484;11.112;2022-07-23T02:46:51;24.93;;;22.33;;
2720;SDS011;1368;49.484;11.112;2022-07-23T02:49:17;27.37;;;23.40;;
2720;SDS011;1368;49.484;11.112;2022-07-23T02:51:42;28.50;;;25.47;;
2720;SDS011;1368;49.484;11.112;2022-07-23T02:54:08;24.90;;;22.40;;
2720;SDS011;1368;49.484;11.112;2022-07-23T02:56:34;26.80;;;22.33;;
2720;SDS011;1368;49.484;11.112;2022-07-23T02:58:59;27.80;;;21.40;;
2720;SDS011;1368;49.484;11.112;2022-07-23T03:01:25;26.30;;;23.67;;
2720;SDS011;1368;49.484;11.112;2022-07-23T03:03:50;27.20;;;23.27;;
2720;SDS011;1368;49.484;11.112;2022-07-23T03:06:16;25.83;;;22.77;;
2720;SDS011;1368;49.484;11.112;2022-07-23T03:08:42;30.73;;;23.70;;
2720;SDS011;1368;49.484;11.112;2022-07-23T03:11:07;25.67;;;23.00;;
2720;SDS011;1368;49.484;11.112;2022-07-23T03:13:36;24.67;;;22.07;;
2720;SDS011;1368;49.484;11.112;2022-07-23T03:16:02;25.37;;;22.70;;
2720;SDS011;1368;49.484;11.112;2022-07-23T03:18:28;27.03;;;23.97;;
2720;SDS011;1368;49.484;11.112;2022-07-23T03:20:54;25.53;;;22.03;;
2720;SDS011;1368;49.484;11.112;2022-07-23T03:23:19;25.80;;;21.87;;
2720;SDS011;1368;49.484;11.112;2022-07-23T03:25:45;28.23;;;24.63;;
2720;SDS011;1368;49.484;11.112;2022-07-23T03:28:13;26.37;;;23.43;;
2720;SDS011;1368;49.484;11.112;2022-07-23T03:30:45;28.50;;;22.90;;
2720;SDS011;1368;49.484;11.112;2022-07-23T03:33:12;26.77;;;23.90;;
2720;SDS011;1368;49.484;11.112;2022-07-23T03:35:45;24.07;;;21.77;;
2720;SDS011;1368;49.484;11.112;2022-07-23T03:38:12;24.53;;;21.93;;
2720;SDS011;1368;49.484;11.112;2022-07-23T03:40:37;25.00;;;22.37;;
2720;SDS011;1368;49.484;11.112;2022-07-23T03:43:03;26.03;;;22.73;;
2720;SDS011;1368;49.484;11.112;2022-07-23T03:45:29;27.93;;;21.53;;
2720;SDS011;1368;49.484;11.112;2022-07-23T03:47:55;23.47;;;21.27;;
2720;SDS011;1368;49.484;11.112;2022-07-23T03:50:21;25.73;;;21.57;;
2720;SDS011;1368;49.484;11.112;2022-07-23T03:52:46;24.50;;;21.90;;
2720;SDS011;1368;49.484;11.112;2022-07-23T03:55:12;26.17;;;23.57;;
2720;SDS011;1368;49.484;11.112;2022-07-23T03:57:38;26.17;;;20.93;;
2720;SDS011;1368;49.484;11.112;2022-07-23T04:00:04;25.10;;;22.60;;
2720;SDS011;1368;49.484;11.112;2022-07-23T04:02:33;23.87;;;21.37;;
2720;SDS011;1368;49.484;11.112;2022-07-23T04:04:58;25.40;;;22.77;;
2720;SDS011;1368;49.484;11.112;2022-07-23T04:07:25;26.80;;;23.37;;
2720;SDS011;1368;49.484;11.112;2022-07-23T04:09:50;25.20;;;21.13;;
2720;SDS011;1368;49.484;11.112;2022-07-23T04:12:16;23.73;;;20.60;;
2720;SDS011;1368;49.484;11.112;2022-07-23T04:14:41;27.20;;;22.03;;
2720;SDS011;1368;49.484;11.112;2022-07-23T04:17:07;27.60;;;23.80;;
2720;SDS011;1368;49.484;11.112;2022-07-23T04:19:33;23.73;;;21.23;;
2720;SDS011;1368;49.484;11.112;2022-07-23T04:22:04;26.30;;;21.33;;
2720;SDS011;1368;49.484;11.112;2022-07-23T04:24:31;23.10;;;20.17;;
2720;SDS011;1368;49.484;11.112;2022-07-23T04:26:56;24.80;;;22.30;;
2720;SDS011;1368;49.484;11.112;2022-07-23T04:29:22;22.50;;;20.00;;
2720;SDS011;1368;49.484;11.112;2022-07-23T04:31:48;23.27;;;20.90;;
2720;SDS011;1368;49.484;11.112;2022-07-23T04:34:14;23.37;;;20.97;;
2720;SDS011;1368;49.484;11.112;2022-07-23T04:36:39;21.77;;;19.53;;
2720;SDS011;1368;49.484;11.112;2022-07-23T04:39:05;21.17;;;19.07;;
2720;SDS011;1368;49.484;11.112;2022-07-23T04:41:30;21.20;;;18.90;;
2720;SDS011;1368;49.484;11.112;2022-07-23T04:43:56;22.57;;;20.13;;
2720;SDS011;1368;49.484;11.112;2022-07-23T04:46:21;21.87;;;19.90;;
2720;SDS011;1368;49.484;11.112;2022-07-23T04:48:47;19.60;;;17.63;;
2720;SDS011;1368;49.484;11.112;2022-07-23T04:51:13;21.27;;;18.60;;
2720;SDS011;1368;49.484;11.112;2022-07-23T04:53:38;19.10;;;16.73;;
2720;SDS011;1368;49.484;11.112;2022-07-23T04:56:04;19.57;;;17.20;;
2720;SDS011;1368;49.484;11.112;2022-07-23T04:58:30;19.27;;;17.23;;
2720;SDS011;1368;49.484;11.112;2022-07-23T05:00:56;20.63;;;17.50;;
2720;SDS011;1368;49.484;11.112;2022-07-23T05:03:23;20.50;;;16.70;;
2720;SDS011;1368;49.484;11.112;2022-07-23T05:05:48;20.63;;;16.07;;
2720;SDS011;1368;49.484;11.112;2022-07-23T05:08:14;17.47;;;15.57;;
2720;SDS011;1368;49.484;11.112;2022-07-23T05:10:40;16.83;;;14.73;;
2720;SDS011;1368;49.484;11.112;2022-07-23T05:13:06;16.00;;;14.07;;
2720;SDS011;1368;49.484;11.112;2022-07-23T05:15:31;14.27;;;12.87;;
2720;SDS011;1368;49.484;11.112;2022-07-23T05:17:57;13.80;;;12.50;;
2720;SDS011;1368;49.484;11.112;2022-07-23T05:20:23;14.27;;;12.87;;
2720;SDS011;1368;49.484;11.112;2022-07-23T05:22:49;13.07;;;11.87;;
2720;SDS011;1368;49.484;11.112;2022-07-23T05:25:15;13.47;;;12.07;;
2720;SDS011;1368;49.484;11.112;2022-07-23T05:27:40;13.63;;;12.30;;
2720;SDS011;1368;49.484;11.112;2022-07-23T05:30:06;12.97;;;11.67;;
2720;SDS011;1368;49.484;11.112;2022-07-23T05:32:32;14.17;;;12.10;;
2720;SDS011;1368;49.484;11.112;2022-07-23T05:34:58;14.00;;;10.57;;
2720;SDS011;1368;49.484;11.112;2022-07-23T05:37:24;11.60;;;10.17;;
2720;SDS011;1368;49.484;11.112;2022-07-23T05:39:49;11.83;;;10.33;;
2720;SDS011;1368;49.484;11.112;2022-07-23T05:42:15;14.90;;;10.30;;
2720;SDS011;1368;49.484;11.112;2022-07-23T05:44:41;11.70;;;9.07;;
2720;SDS011;1368;49.484;11.112;2022-07-23T05:47:06;10.13;;;9.13;;
2720;SDS011;1368;49.484;11.112;2022-07-23T05:49:32;10.83;;;8.80;;
2720;SDS011;1368;49.484;11.112;2022-07-23T05:51:58;13.50;;;9.63;;
2720;SDS011;1368;49.484;11.112;2022-07-23T05:54:24;9.27;;;8.37;;
2720;SDS011;1368;49.484;11.112;2022-07-23T05:56:49;11.30;;;9.30;;
2720;SDS011;1368;49.484;11.112;2022-07-23T05:59:15;12.33;;;8.83;;
2720;SDS011;1368;49.484;11.112;2022-07-23T06:01:41;8.60;;;7.80;;
2720;SDS011;1368;49.484;11.112;2022-07-23T06:04:06;8.40;;;7.50;;
2720;SDS011;1368;49.484;11.112;2022-07-23T06:06:32;8.50;;;7.70;;
2720;SDS011;1368;49.484;11.112;2022-07-23T06:08:58;9.00;;;7.33;;
2720;SDS011;1368;49.484;11.112;2022-07-23T06:11:23;8.57;;;7.57;;
2720;SDS011;1368;49.484;11.112;2022-07-23T06:13:49;8.13;;;7.33;;
2720;SDS011;1368;49.484;11.112;2022-07-23T06:16:15;8.83;;;8.03;;
2720;SDS011;1368;49.484;11.112;2022-07-23T06:18:40;7.70;;;7.00;;
2720;SDS011;1368;49.484;11.112;2022-07-23T06:21:06;8.67;;;7.77;;
2720;SDS011;1368;49.484;11.112;2022-07-23T06:23:31;9.00;;;8.20;;
2720;SDS011;1368;49.484;11.112;2022-07-23T06:25:57;8.63;;;7.33;;
2720;SDS011;1368;49.484;11.112;2022-07-23T06:28:22;7.90;;;7.10;;
2720;SDS011;1368;49.484;11.112;2022-07-23T06:30:48;9.27;;;7.00;;
2720;SDS011;1368;49.484;11.112;2022-07-23T06:33:13;7.17;;;6.47;;
2720;SDS011;1368;49.484;11.112;2022-07-23T06:35:39;9.10;;;6.70;;
2720;SDS011;1368;49.484;11.112;2022-07-23T06:38:05;9.43;;;7.40;;
2720;SDS011;1368;49.484;11.112;2022-07-23T06:40:30;7.80;;;6.73;;
2720;SDS011;1368;49.484;11.112;2022-07-23T06:42:56;8.37;;;6.33;;
2720;SDS011;1368;49.484;11.112;2022-07-23T06:45:21;9.30;;;7.57;;
2720;SDS011;1368;49.484;11.112;2022-07-23T06:47:47;8.03;;;7.33;;
2720;SDS011;1368;49.484;11.112;2022-07-23T06:50:13;8.03;;;7.20;;
2720;SDS011;1368;49.484;11.112;2022-07-23T06:52:38;6.70;;;6.10;;
2720;SDS011;1368;49.484;11.112;2022-07-23T06:55:04;8.20;;;7.40;;
2720;SDS011;1368;49.484;11.112;2022-07-23T06:57:30;8.27;;;7.10;;
2720;SDS011;1368;49.484;11.112;2022-07-23T06:59:56;7.33;;;6.60;;
2720;SDS011;1368;49.484;11.112;2022-07-23T07:02:21;8.23;;;7.43;;
2720;SDS011;1368;49.484;11.112;2022-07-23T07:04:47;7.13;;;6.53;;
2720;SDS011;1368;49.484;11.112;2022-07-23T07:07:12;7.83;;;7.13;;
2720;SDS011;1368;49.484;11.112;2022-07-23T07:09:38;7.23;;;6.53;;
2720;SDS011;1368;49.484;11.112;2022-07-23T07:12:04;7.83;;;7.13;;
2720;SDS011;1368;49.484;11.112;2022-07-23T07:14:30;7.47;;;6.83;;
2720;SDS011;1368;49.484;11.112;2022-07-23T07:16:55;8.50;;;7.60;;
2720;SDS011;1368;49.484;11.112;2022-07-23T07:19:21;10.20;;;7.50;;
2720;SDS011;1368;49.484;11.112;2022-07-23T07:21:46;9.07;;;8.30;;
2720;SDS011;1368;49.484;11.112;2022-07-23T07:24:12;9.33;;;7.87;;
2720;SDS011;1368;49.484;11.112;2022-07-23T07:26:38;9.53;;;8.30;;
2720;SDS011;1368;49.484;11.112;2022-07-23T07:29:04;10.07;;;8.80;;
2720;SDS011;1368;49.484;11.112;2022-07-23T07:31:30;11.77;;;10.10;;
2720;SDS011;1368;49.484;11.112;2022-07-23T07:33:55;12.17;;;10.80;;
2720;SDS011;1368;49.484;11.112;2022-07-23T07:36:22;10.00;;;9.00;;
2720;SDS011;1368;49.484;11.112;2022-07-23T07:38:48;10.40;;;9.37;;
2720;SDS011;1368;49.484;11.112;2022-07-23T07:41:13;10.57;;;9.50;;
2720;SDS011;1368;49.484;11.112;2022-07-23T07:43:39;9.87;;;8.60;;
2720;SDS011;1368;49.484;11.112;2022-07-23T07:46:05;12.70;;;9.47;;
2720;SDS011;1368;49.484;11.112;2022-07-23T07:48:34;9.93;;;9.00;;
2720;SDS011;1368;49.484;11.112;2022-07-23T07:51:01;10.47;;;9.40;;
2720;SDS011;1368;49.484;11.112;2022-07-23T07:53:27;11.50;;;10.40;;
2720;SDS011;1368;49.484;11.112;2022-07-23T07:55:53;11.00;;;9.97;;
2720;SDS011;1368;49.484;11.112;2022-07-23T07:58:18;12.80;;;11.50;;
2720;SDS011;1368;49.484;11.112;2022-07-23T08:00:44;12.90;;;11.57;;
2720;SDS011;1368;49.484;11.112;2022-07-23T08:03:09;12.13;;;10.83;;
2720;SDS011;1368;49.484;11.112;2022-07-23T08:05:35;13.53;;;11.63;;
2720;SDS011;1368;49.484;11.112;2022-07-23T08:08:00;13.33;;;12.13;;
2720;SDS011;1368;49.484;11.112;2022-07-23T08:10:26;16.30;;;11.17;;
2720;SDS011;1368;49.484;11.112;2022-07-23T08:12:54;15.43;;;12.93;;
2720;SDS011;1368;49.484;11.112;2022-07-23T08:15:22;14.40;;;12.90;;
2720;SDS011;1368;49.484;11.112;2022-07-23T08:17:48;13.97;;;12.37;;
2720;SDS011;1368;49.484;11.112;2022-07-23T08:20:15;14.90;;;13.40;;
2720;SDS011;1368;49.484;11.112;2022-07-23T08:25:13;14.83;;;13.27;;
2720;SDS011;1368;49.484;11.112;2022-07-23T08:27:39;14.60;;;11.57;;
2720;SDS011;1368;49.484;11.112;2022-07-23T08:30:05;16.73;;;12.67;;
2720;SDS011;1368;49.484;11.112;2022-07-23T08:32:32;13.00;;;11.60;;
2720;SDS011;1368;49.484;11.112;2022-07-23T08:34:57;14.30;;;12.80;;
2720;SDS011;1368;49.484;11.112;2022-07-23T08:37:23;13.33;;;11.97;;
2720;SDS011;1368;49.484;11.112;2022-07-23T08:39:48;12.40;;;11.30;;
2720;SDS011;1368;49.484;11.112;2022-07-23T08:42:14;12.17;;;10.93;;
2720;SDS011;1368;49.484;11.112;2022-07-23T08:44:45;11.87;;;10.33;;
2720;SDS011;1368;49.484;11.112;2022-07-23T08:47:13;13.67;;;10.47;;
2720;SDS011;1368;49.484;11.112;2022-07-23T08:49:40;15.90;;;12.87;;
2720;SDS011;1368;49.484;11.112;2022-07-23T08:52:06;12.57;;;11.40;;
2720;SDS011;1368;49.484;11.112;2022-07-23T08:54:32;12.17;;;10.87;;
2720;SDS011;1368;49.484;11.112;2022-07-23T08:56:59;12.27;;;11.07;;
2720;SDS011;1368;49.484;11.112;2022-07-23T08:59:25;12.50;;;11.20;;
2720;SDS011;1368;49.484;11.112;2022-07-23T09:01:51;12.47;;;11.17;;
2720;SDS011;1368;49.484;11.112;2022-07-23T09:04:17;15.10;;;13.20;;
2720;SDS011;1368;49.484;11.112;2022-07-23T09:06:43;13.83;;;12.30;;
2720;SDS011;1368;49.484;11.112;2022-07-23T09:09:16;14.00;;;12.60;;
2720;SDS011;1368;49.484;11.112;2022-07-23T09:11:45;16.30;;;14.70;;
2720;SDS011;1368;49.484;11.112;2022-07-23T09:14:12;15.67;;;14.17;;
2720;SDS011;1368;49.484;11.112;2022-07-23T09:16:37;15.57;;;13.53;;
2720;SDS011;1368;49.484;11.112;2022-07-23T09:19:04;15.63;;;13.97;;
2720;SDS011;1368;49.484;11.112;2022-07-23T09:21:31;15.20;;;13.20;;
2720;SDS011;1368;49.484;11.112;2022-07-23T09:24:08;14.50;;;12.20;;
2720;SDS011;1368;49.484;11.112;2022-07-23T09:26:41;16.63;;;12.10;;
2720;SDS011;1368;49.484;11.112;2022-07-23T09:31:46;13.10;;;11.30;;
2720;SDS011;1368;49.484;11.112;2022-07-23T09:36:49;11.20;;;10.10;;
2720;SDS011;1368;49.484;11.112;2022-07-23T09:39:30;12.77;;;8.90;;
2720;SDS011;1368;49.484;11.112;2022-07-23T09:41:57;12.70;;;10.80;;
2720;SDS011;1368;49.484;11.112;2022-07-23T09:44:40;11.23;;;10.13;;
2720;SDS011;1368;49.484;11.112;2022-07-23T09:47:07;16.50;;;10.53;;
2720;SDS011;1368;49.484;11.112;2022-07-23T09:49:33;10.90;;;9.47;;
2720;SDS011;1368;49.484;11.112;2022-07-23T09:51:59;11.57;;;10.27;;
2720;SDS011;1368;49.484;11.112;2022-07-23T09:56:59;13.73;;;10.67;;
2720;SDS011;1368;49.484;11.112;2022-07-23T09:59:43;13.77;;;11.03;;
2720;SDS011;1368;49.484;11.112;2022-07-23T10:02:11;13.93;;;12.43;;
2720;SDS011;1368;49.484;11.112;2022-07-23T10:04:38;15.83;;;11.80;;
2720;SDS011;1368;49.484;11.112;2022-07-23T10:07:05;13.20;;;11.80;;
2720;SDS011;1368;49.484;11.112;2022-07-23T10:09:33;17.57;;;12.30;;
2720;SDS011;1368;49.484;11.112;2022-07-23T10:12:02;13.37;;;11.67;;
2720;SDS011;1368;49.484;11.112;2022-07-23T10:14:35;16.03;;;13.07;;
2720;SDS011;1368;49.484;11.112;2022-07-23T10:17:03;15.00;;;13.37;;
2720;SDS011;1368;49.484;11.112;2022-07-23T10:19:30;18.47;;;12.93;;
2720;SDS011;1368;49.484;11.112;2022-07-23T10:21:58;15.03;;;13.43;;
2720;SDS011;1368;49.484;11.112;2022-07-23T10:30:04;15.23;;;13.63;;
2720;SDS011;1368;49.484;11.112;2022-07-23T10:32:44;20.63;;;15.47;;
2720;SDS011;1368;49.484;11.112;2022-07-23T10:38:10;17.13;;;15.30;;
2720;SDS011;1368;49.484;11.112;2022-07-23T10:43:24;17.03;;;15.20;;
2720;SDS011;1368;49.484;11.112;2022-07-23T10:45:51;17.97;;;16.07;;
2720;SDS011;1368;49.484;11.112;2022-07-23T10:48:18;20.57;;;15.20;;
2720;SDS011;1368;49.484;11.112;2022-07-23T10:56:16;19.43;;;15.93;;
2720;SDS011;1368;49.484;11.112;2022-07-23T10:59:03;22.63;;;15.70;;
2720;SDS011;1368;49.484;11.112;2022-07-23T11:01:33;17.60;;;15.80;;
2720;SDS011;1368;49.484;11.112;2022-07-23T11:04:00;15.40;;;13.90;;
2720;SDS011;1368;49.484;11.112;2022-07-23T11:09:25;19.20;;;16.30;;
2720;SDS011;1368;49.484;11.112;2022-07-23T11:12:31;18.70;;;16.80;;
2720;SDS011;1368;49.484;11.112;2022-07-23T11:14:58;20.03;;;16.37;;
2720;SDS011;1368;49.484;11.112;2022-07-23T11:17:24;22.07;;;16.40;;
2720;SDS011;1368;49.484;11.112;2022-07-23T11:25:11;19.20;;;17.20;;
2720;SDS011;1368;49.484;11.112;2022-07-23T11:27:47;22.70;;;17.07;;
2720;SDS011;1368;49.484;11.112;2022-07-23T11:30:58;19.73;;;16.57;;
2720;SDS011;1368;49.484;11.112;2022-07-23T11:35:32;21.30;;;17.93;;
2720;SDS011;1368;49.484;11.112;2022-07-23T11:38:41;18.00;;;16.10;;
2720;SDS011;1368;49.484;11.112;2022-07-23T11:40:52;16.07;;;14.43;;
2720;SDS011;1368;49.484;11.112;2022-07-23T11:43:19;15.60;;;14.00;;
2720;SDS011;1368;49.484;11.112;2022-07-23T11:45:46;15.97;;;13.53;;
2720;SDS011;1368;49.484;11.112;2022-07-23T11:48:17;16.90;;;13.90;;
2720;SDS011;1368;49.484;11.112;2022-07-23T11:50:47;16.30;;;14.27;;
2720;SDS011;1368;49.484;11.112;2022-07-23T11:53:20;15.73;;;14.20;;
2720;SDS011;1368;49.484;11.112;2022-07-23T11:55:50;13.73;;;12.43;;
2720;SDS011;1368;49.484;11.112;2022-07-23T11:58:16;15.67;;;13.90;;
2720;SDS011;1368;49.484;11.112;2022-07-23T12:00:42;17.07;;;14.43;;
2720;SDS011;1368;49.484;11.112;2022-07-23T12:03:08;15.00;;;13.50;;
2720;SDS011;1368;49.484;11.112;2022-07-23T12:05:34;13.90;;;12.57;;
2720;SDS011;1368;49.484;11.112;2022-07-23T12:08:03;14.20;;;10.90;;
2720;SDS011;1368;49.484;11.112;2022-07-23T12:10:33;12.23;;;11.00;;
2720;SDS011;1368;49.484;11.112;2022-07-23T12:13:00;13.87;;;12.03;;
2720;SDS011;1368;49.484;11.112;2022-07-23T12:15:36;13.77;;;11.00;;
2720;SDS011;1368;49.484;11.112;2022-07-23T12:18:07;12.90;;;11.70;;
2720;SDS011;1368;49.484;11.112;2022-07-23T12:20:37;13.73;;;11.57;;
2720;SDS011;1368;49.484;11.112;2022-07-23T12:23:13;11.67;;;10.57;;
2720;SDS011;1368;49.484;11.112;2022-07-23T12:25:41;11.40;;;10.40;;
2720;SDS011;1368;49.484;11.112;2022-07-23T12:30:44;13.00;;;11.80;;
2720;SDS011;1368;49.484;11.112;2022-07-23T12:33:12;14.13;;;12.73;;
2720;SDS011;1368;49.484;11.112;2022-07-23T12:35:41;11.97;;;10.87;;
2720;SDS011;1368;49.484;11.112;2022-07-23T12:38:10;13.10;;;11.80;;
2720;SDS011;1368;49.484;11.112;2022-07-23T12:43:23;12.43;;;11.27;;
2720;SDS011;1368;49.484;11.112;2022-07-23T12:45:54;12.13;;;10.93;;
2720;SDS011;1368;49.484;11.112;2022-07-23T12:48:39;13.00;;;11.80;;
2720;SDS011;1368;49.484;11.112;2022-07-23T12:58:47;11.50;;;10.27;;
2720;SDS011;1368;49.484;11.112;2022-07-23T13:03:54;11.30;;;10.20;;
2720;SDS011;1368;49.484;11.112;2022-07-23T13:06:20;11.00;;;10.00;;
2720;SDS011;1368;49.484;11.112;2022-07-23T13:08:46;10.50;;;9.57;;
2720;SDS011;1368;49.484;11.112;2022-07-23T13:11:11;11.90;;;10.67;;
2720;SDS011;1368;49.484;11.112;2022-07-23T13:13:37;11.20;;;10.20;;
2720;SDS011;1368;49.484;11.112;2022-07-23T13:16:03;10.50;;;9.60;;
2720;SDS011;1368;49.484;11.112;2022-07-23T13:18:29;10.77;;;9.77;;
2720;SDS011;1368;49.484;11.112;2022-07-23T13:20:55;10.77;;;9.70;;
2720;SDS011;1368;49.484;11.112;2022-07-23T13:23:22;10.77;;;9.63;;
2720;SDS011;1368;49.484;11.112;2022-07-23T13:25:48;12.37;;;10.33;;
2720;SDS011;1368;49.484;11.112;2022-07-23T13:28:14;11.63;;;10.33;;
2720;SDS011;1368;49.484;11.112;2022-07-23T13:30:41;10.33;;;9.17;;
2720;SDS011;1368;49.484;11.112;2022-07-23T13:33:07;10.90;;;9.90;;
2720;SDS011;1368;49.484;11.112;2022-07-23T13:35:33;12.37;;;10.50;;
2720;SDS011;1368;49.484;11.112;2022-07-23T13:38:01;10.63;;;9.63;;
2720;SDS011;1368;49.484;11.112;2022-07-23T13:40:27;11.60;;;10.50;;
2720;SDS011;1368;49.484;11.112;2022-07-23T13:42:53;11.20;;;9.10;;
2720;SDS011;1368;49.484;11.112;2022-07-23T13:45:18;12.40;;;11.30;;
2720;SDS011;1368;49.484;11.112;2022-07-23T13:47:44;11.43;;;10.33;;
2720;SDS011;1368;49.484;11.112;2022-07-23T13:50:10;10.90;;;9.80;;
2720;SDS011;1368;49.484;11.112;2022-07-23T13:52:35;10.50;;;9.53;;
2720;SDS011;1368;49.484;11.112;2022-07-23T13:55:02;10.00;;;9.03;;
2720;SDS011;1368;49.484;11.112;2022-07-23T13:57:29;10.57;;;9.57;;
2720;SDS011;1368;49.484;11.112;2022-07-23T13:59:56;11.73;;;10.63;;
2720;SDS011;1368;49.484;11.112;2022-07-23T14:02:21;10.43;;;9.50;;
2720;SDS011;1368;49.484;11.112;2022-07-23T14:04:47;16.67;;;14.93;;
2720;SDS011;1368;49.484;11.112;2022-07-23T14:07:13;12.97;;;11.77;;
2720;SDS011;1368;49.484;11.112;2022-07-23T14:09:39;11.87;;;10.60;;
2720;SDS011;1368;49.484;11.112;2022-07-23T14:12:05;11.27;;;10.27;;
2720;SDS011;1368;49.484;11.112;2022-07-23T14:14:31;13.97;;;11.17;;
2720;SDS011;1368;49.484;11.112;2022-07-23T14:16:57;13.33;;;12.03;;
2720;SDS011;1368;49.484;11.112;2022-07-23T14:19:23;14.33;;;12.93;;
2720;SDS011;1368;49.484;11.112;2022-07-23T14:21:49;10.97;;;9.77;;
2720;SDS011;1368;49.484;11.112;2022-07-23T14:24:15;10.63;;;9.63;;
2720;SDS011;1368;49.484;11.112;2022-07-23T14:26:41;11.40;;;10.20;;
2720;SDS011;1368;49.484;11.112;2022-07-23T14:29:07;11.37;;;10.20;;
2720;SDS011;1368;49.484;11.112;2022-07-23T14:31:33;11.97;;;10.77;;
2720;SDS011;1368;49.484;11.112;2022-07-23T14:33:59;11.20;;;10.10;;
2720;SDS011;1368;49.484;11.112;2022-07-23T14:36:25;10.50;;;9.60;;
2720;SDS011;1368;49.484;11.112;2022-07-23T14:38:51;10.83;;;9.80;;
2720;SDS011;1368;49.484;11.112;2022-07-23T14:41:16;11.37;;;10.30;;
2720;SDS011;1368;49.484;11.112;2022-07-23T14:43:42;11.20;;;10.10;;
2720;SDS011;1368;49.484;11.112;2022-07-23T14:46:08;10.50;;;9.60;;
2720;SDS011;1368;49.484;11.112;2022-07-23T14:48:36;10.03;;;9.13;;
2720;SDS011;1368;49.484;11.112;2022-07-23T14:51:02;12.03;;;10.93;;
2720;SDS011;1368;49.484;11.112;2022-07-23T14:53:28;12.43;;;9.60;;
2720;SDS011;1368;49.484;11.112;2022-07-23T14:55:54;10.27;;;9.27;;
2720;SDS011;1368;49.484;11.112;2022-07-23T14:58:22;10.67;;;9.70;;
2720;SDS011;1368;49.484;11.112;2022-07-23T15:00:48;10.50;;;9.57;;
2720;SDS011;1368;49.484;11.112;2022-07-23T15:03:13;10.60;;;9.30;;
2720;SDS011;1368;49.484;11.112;2022-07-23T15:05:39;10.50;;;9.40;;
2720;SDS011;1368;49.484;11.112;2022-07-23T15:08:04;10.37;;;9.40;;
2720;SDS011;1368;49.484;11.112;2022-07-23T15:10:30;9.80;;;8.80;;
2720;SDS011;1368;49.484;11.112;2022-07-23T15:12:55;13.33;;;10.40;;
2720;SDS011;1368;49.484;11.112;2022-07-23T15:15:21;10.20;;;9.20;;
2720;SDS011;1368;49.484;11.112;2022-07-23T15:17:47;11.50;;;10.10;;
2720;SDS011;1368;49.484;11.112;2022-07-23T15:20:12;9.97;;;9.00;;
2720;SDS011;1368;49.484;11.112;2022-07-23T15:22:38;10.43;;;9.33;;
2720;SDS011;1368;49.484;11.112;2022-07-23T15:25:04;10.53;;;9.53;;
2720;SDS011;1368;49.484;11.112;2022-07-23T15:27:30;10.27;;;9.27;;
2720;SDS011;1368;49.484;11.112;2022-07-23T15:29:56;12.43;;;10.17;;